Time;durP1;ratioP1;P1;durP2;ratioP2;P2;SDS_P1;SDS_P2;PMS_P1;PMS_P2;Temp;Humidity;BMP_temperature;BMP_pressure;BME280_temperature;BME280_humidity;BME280_pressure;Samples;Min_cycle;Max_cycle;Signal;HPM_P1;HPM_P2
2021/08/12 00:01:30;;;;;;;8.60;6.40;;;;;;;23.13;58.00;100395.44;117476;1185;22304;-63
2021/08/12 00:03:58;;;;;;;8.10;6.50;;;;;;;23.12;58.17;100398.21;117442;1186;21841;-66
2021/08/12 00:06:27;;;;;;;8.40;6.60;;;;;;;23.25;57.88;100398.27;117480;1185;21851;-63
2021/08/12 00:08:55;;;;;;;8.90;6.90;;;;;;;23.12;58.19;100400.86;117518;1185;21842;-64
2021/08/12 00:11:24;;;;;;;9.30;6.60;;;;;;;23.07;58.38;100403.15;117493;1183;21843;-64
2021/08/12 00:13:52;;;;;;;10.90;6.70;;;;;;;23.05;58.53;100403.13;117484;1182;21908;-64
2021/08/12 00:16:20;;;;;;;9.30;6.40;;;;;;;23.25;58.14;100408.98;117495;1183;21845;-62
2021/08/12 00:18:55;;;;;;;9.10;7.10;;;;;;;23.45;57.55;100410.05;117427;1185;21845;-64
2021/08/12 00:21:23;;;;;;;9.00;6.90;;;;;;;23.09;58.37;100416.64;117417;1185;22365;-64
2021/08/12 00:23:52;;;;;;;10.40;7.20;;;;;;;23.19;58.29;100419.56;117520;1185;22080;-66
2021/08/12 00:26:20;;;;;;;9.30;6.70;;;;;;;23.30;57.99;100423.01;117514;1183;21850;-65
2021/08/12 00:28:48;;;;;;;12.80;7.80;;;;;;;22.99;58.80;100425.47;117505;1185;21943;-63
2021/08/12 00:31:16;;;;;;;7.90;7.10;;;;;;;23.03;58.71;100426.11;117467;1182;23522;-63
2021/08/12 00:33:45;;;;;;;8.70;6.90;;;;;;;23.02;58.87;100426.56;117391;1185;21855;-64
2021/08/12 00:36:12;;;;;;;9.40;7.30;;;;;;;22.99;58.83;100426.03;117384;1182;23455;-63
2021/08/12 00:38:41;;;;;;;10.10;7.30;;;;;;;22.99;59.06;100432.83;117377;1185;21868;-65
2021/08/12 00:41:11;;;;;;;8.70;7.60;;;;;;;22.97;59.10;100436.54;117463;1185;21855;-65
2021/08/12 00:43:39;;;;;;;9.60;7.50;;;;;;;22.91;59.19;100436.59;117452;1183;21844;-63
2021/08/12 00:46:07;;;;;;;8.90;8.00;;;;;;;22.88;59.43;100436.38;117425;1185;21854;-63
2021/08/12 00:48:35;;;;;;;9.90;7.30;;;;;;;23.06;59.03;100437.54;117452;1182;21961;-66
2021/08/12 00:51:03;;;;;;;10.10;7.70;;;;;;;22.96;59.35;100439.43;117358;1185;21864;-66
2021/08/12 00:53:32;;;;;;;8.70;7.60;;;;;;;22.85;59.52;100440.48;117343;1185;22947;-65
2021/08/12 00:56:01;;;;;;;10.10;7.90;;;;;;;22.81;59.57;100436.82;117464;1186;23650;-63
2021/08/12 00:58:29;;;;;;;8.50;7.30;;;;;;;22.75;59.76;100438.41;117376;1182;21866;-63
2021/08/12 01:00:57;;;;;;;9.10;7.60;;;;;;;22.71;59.89;100439.25;117241;1184;21878;-65
2021/08/12 01:03:26;;;;;;;11.00;7.20;;;;;;;23.25;58.70;100432.73;117337;1183;21845;-62
2021/08/12 01:05:57;;;;;;;10.20;7.80;;;;;;;23.18;58.46;100438.58;117385;1185;21895;-62
2021/08/12 01:08:34;;;;;;;11.10;7.80;;;;;;;22.78;59.49;100444.14;117417;1185;21967;-66
2021/08/12 01:11:17;;;;;;;11.00;7.70;;;;;;;22.73;59.64;100449.15;117392;1182;21845;-66
2021/08/12 01:14:07;;;;;;;12.10;8.10;;;;;;;22.68;59.90;100453.39;117341;1182;23583;-64
2021/08/12 01:16:50;;;;;;;9.50;7.30;;;;;;;22.71;59.69;100451.43;117499;1186;23439;-68
2021/08/12 01:19:37;;;;;;;10.20;6.90;;;;;;;22.70;59.76;100450.23;117432;1183;21854;-67
2021/08/12 01:22:05;;;;;;;9.10;7.30;;;;;;;22.76;59.53;100454.15;117411;1183;21854;-64
2021/08/12 01:24:38;;;;;;;9.80;8.40;;;;;;;22.70;59.43;100454.86;117302;1182;21865;-67
2021/08/12 01:27:08;;;;;;;10.60;7.70;;;;;;;22.66;59.65;100453.52;117367;1183;21854;-66
2021/08/12 01:29:55;;;;;;;11.80;7.50;;;;;;;22.65;59.69;100454.46;117379;1180;21899;-63
2021/08/12 01:32:26;;;;;;;8.50;6.60;;;;;;;22.65;59.63;100458.02;117353;1186;22310;-65
2021/08/12 01:35:23;;;;;;;8.10;6.50;;;;;;;22.69;59.59;100459.74;117405;1186;21887;-67
2021/08/12 01:37:55;;;;;;;11.00;7.90;;;;;;;22.70;59.54;100461.64;117330;1185;21855;-66
2021/08/12 01:40:23;;;;;;;9.60;7.00;;;;;;;22.72;59.46;100463.67;117432;1183;21886;-65
2021/08/12 01:42:52;;;;;;;9.80;7.10;;;;;;;22.65;59.34;100463.55;117495;1185;21969;-66
2021/08/12 01:45:21;;;;;;;9.30;7.30;;;;;;;22.62;59.43;100461.25;117449;1185;21861;-67
2021/08/12 01:47:50;;;;;;;9.90;7.50;;;;;;;22.62;59.45;100458.95;117466;1185;21854;-68
2021/08/12 01:50:18;;;;;;;10.10;7.00;;;;;;;22.60;59.45;100462.95;117403;1186;22912;-67
2021/08/12 01:52:48;;;;;;;8.90;7.40;;;;;;;22.61;59.42;100461.65;117468;1189;21855;-63
2021/08/12 01:55:19;;;;;;;9.10;7.10;;;;;;;22.59;59.43;100463.41;117451;1182;23634;-63
2021/08/12 01:57:47;;;;;;;10.50;7.20;;;;;;;22.65;59.37;100465.86;117433;1176;21940;-67
2021/08/12 02:00:15;;;;;;;11.10;6.70;;;;;;;22.71;59.14;100468.91;117372;1186;21852;-67
2021/08/12 02:02:44;;;;;;;8.90;6.60;;;;;;;22.89;58.50;100466.74;117522;1185;21861;-66
2021/08/12 02:05:13;;;;;;;9.40;7.90;;;;;;;22.69;58.94;100468.35;117441;1183;23544;-67
2021/08/12 02:07:42;;;;;;;10.60;7.60;;;;;;;22.63;58.96;100469.64;117415;1185;23535;-67
2021/08/12 02:10:11;;;;;;;11.50;8.40;;;;;;;22.60;58.95;100473.88;117358;1180;22906;-63
2021/08/12 02:12:39;;;;;;;11.70;7.30;;;;;;;22.59;58.99;100473.06;117572;1186;21891;-63
2021/08/12 02:15:08;;;;;;;10.50;7.30;;;;;;;22.59;58.96;100473.04;117384;1176;21852;-63
2021/08/12 02:17:36;;;;;;;10.40;7.30;;;;;;;22.54;59.14;100473.20;117420;1185;23442;-63
2021/08/12 02:20:09;;;;;;;11.10;7.70;;;;;;;22.54;59.06;100474.61;117389;1176;21851;-62
2021/08/12 02:22:39;;;;;;;9.90;7.10;;;;;;;22.48;59.18;100475.52;117455;1182;21964;-69
2021/08/12 02:25:12;;;;;;;11.10;7.70;;;;;;;22.37;59.36;100478.47;117520;1183;21841;-63
2021/08/12 02:27:44;;;;;;;8.80;7.00;;;;;;;22.31;59.40;100479.14;117455;1182;22876;-63
2021/08/12 02:30:13;;;;;;;8.90;7.10;;;;;;;22.21;59.74;100474.23;117506;1183;21855;-63
2021/08/12 02:32:41;;;;;;;8.50;7.10;;;;;;;22.23;59.58;100479.80;117391;1183;21840;-68
2021/08/12 02:35:10;;;;;;;9.10;7.20;;;;;;;22.18;59.85;100483.69;117246;1184;21855;-67
2021/08/12 02:37:38;;;;;;;11.40;7.90;;;;;;;22.19;59.74;100482.39;117439;1183;21858;-68
2021/08/12 02:40:08;;;;;;;8.70;6.70;;;;;;;22.23;59.53;100482.89;117423;1185;21854;-62
2021/08/12 02:42:40;;;;;;;9.90;7.10;;;;;;;22.29;59.50;100488.77;117439;1185;21845;-68
2021/08/12 02:45:08;;;;;;;9.90;6.90;;;;;;;22.27;59.48;100488.56;117390;1184;21855;-65
2021/08/12 02:47:37;;;;;;;10.30;7.40;;;;;;;22.17;59.77;100490.21;117445;1182;23175;-68
2021/08/12 02:50:05;;;;;;;11.60;7.70;;;;;;;22.12;59.82;100493.17;117416;1183;21855;-64
2021/08/12 02:52:34;;;;;;;9.70;6.90;;;;;;;22.11;59.86;100491.61;117416;1179;21854;-69
2021/08/12 02:55:02;;;;;;;13.20;7.70;;;;;;;22.07;59.99;100496.11;117347;1186;22966;-62
2021/08/12 02:57:30;;;;;;;9.70;7.20;;;;;;;22.00;60.09;100500.64;117528;1185;21886;-63
2021/08/12 02:59:58;;;;;;;10.00;7.30;;;;;;;22.11;59.92;100504.86;117402;1186;21854;-63
2021/08/12 03:02:26;;;;;;;10.00;6.60;;;;;;;22.05;59.97;100506.44;117457;1183;21851;-69
2021/08/12 03:04:55;;;;;;;10.60;6.80;;;;;;;21.97;60.38;100513.52;117304;1185;21841;-63
2021/08/12 03:07:23;;;;;;;11.70;7.30;;;;;;;22.01;60.12;100515.61;117331;1182;22665;-69
2021/08/12 03:09:51;;;;;;;10.70;7.40;;;;;;;22.13;59.80;100513.66;117393;1186;21892;-68
2021/08/12 03:12:19;;;;;;;9.50;6.90;;;;;;;22.16;59.67;100515.61;117495;1185;21870;-69
2021/08/12 03:14:48;;;;;;;8.90;7.20;;;;;;;22.14;59.82;100520.20;117476;1182;21871;-64
2021/08/12 03:17:16;;;;;;;12.00;7.50;;;;;;;22.13;59.85;100522.91;117426;1181;22948;-63
2021/08/12 03:19:44;;;;;;;10.50;6.20;;;;;;;22.06;60.14;100526.20;117297;1186;21870;-65
2021/08/12 03:22:13;;;;;;;10.50;6.90;;;;;;;22.02;60.27;100527.17;117231;1186;21866;-68
2021/08/12 03:24:43;;;;;;;7.70;6.20;;;;;;;22.00;60.33;100527.25;117516;1183;21855;-64
2021/08/12 03:27:12;;;;;;;10.60;7.10;;;;;;;22.02;60.31;100528.05;117506;1183;23429;-68
2021/08/12 03:29:41;;;;;;;11.40;6.80;;;;;;;22.01;60.47;100528.79;117572;1182;21844;-63
2021/08/12 03:32:10;;;;;;;11.90;7.20;;;;;;;22.07;60.45;100532.02;117589;1179;22616;-68
2021/08/12 03:34:38;;;;;;;11.30;7.50;;;;;;;22.19;60.16;100529.22;117522;1182;21855;-63
2021/08/12 03:37:06;;;;;;;16.90;7.40;;;;;;;22.21;60.20;100532.50;117548;1176;21855;-68
2021/08/12 03:39:35;;;;;;;14.40;6.90;;;;;;;22.27;60.08;100533.37;117439;1176;21855;-63
2021/08/12 03:42:03;;;;;;;11.50;7.10;;;;;;;22.24;60.20;100528.73;117499;1185;21874;-63
2021/08/12 03:44:31;;;;;;;11.80;7.30;;;;;;;22.26;60.42;100534.31;117545;1176;21861;-64
2021/08/12 03:47:07;;;;;;;13.00;7.60;;;;;;;22.27;60.54;100536.23;117440;1183;21851;-67
2021/08/12 03:49:35;;;;;;;10.90;7.50;;;;;;;22.35;60.50;100538.97;117525;1185;22899;-64
2021/08/12 03:52:04;;;;;;;11.00;6.60;;;;;;;22.40;60.50;100538.33;117476;1182;21853;-64
2021/08/12 03:54:35;;;;;;;9.80;6.80;;;;;;;22.53;60.29;100538.46;117538;1185;21967;-64
2021/08/12 03:57:04;;;;;;;8.50;6.70;;;;;;;22.63;60.15;100542.40;117341;1183;23339;-67
2021/08/12 03:59:33;;;;;;;11.50;7.10;;;;;;;22.69;59.93;100543.83;117510;1185;22090;-65
2021/08/12 04:02:01;;;;;;;10.30;7.10;;;;;;;22.78;59.79;100549.88;117514;1184;21851;-65
2021/08/12 04:04:29;;;;;;;11.40;8.40;;;;;;;22.89;59.63;100546.19;117495;1182;24212;-67
2021/08/12 04:06:58;;;;;;;9.70;6.60;;;;;;;22.94;59.55;100548.56;117540;1182;21842;-67
2021/08/12 04:09:26;;;;;;;7.90;6.40;;;;;;;23.07;59.29;100551.52;117495;1185;21849;-64
2021/08/12 04:11:54;;;;;;;9.60;6.70;;;;;;;23.11;59.23;100553.59;117532;1185;21855;-68
2021/08/12 04:14:22;;;;;;;9.60;7.00;;;;;;;23.13;59.03;100551.69;117504;1182;21834;-64
2021/08/12 04:16:52;;;;;;;7.60;6.50;;;;;;;23.23;58.80;100547.29;117487;1183;21892;-65
2021/08/12 04:19:22;;;;;;;12.00;6.90;;;;;;;23.35;58.56;100550.34;117524;1176;23459;-65
2021/08/12 04:21:50;;;;;;;8.90;6.60;;;;;;;23.40;58.47;100548.57;117566;1182;21855;-69
2021/08/12 04:24:19;;;;;;;9.00;6.80;;;;;;;23.33;58.79;100551.92;117404;1186;21859;-68
2021/08/12 04:26:47;;;;;;;9.60;6.60;;;;;;;23.36;58.83;100552.80;117602;1183;21855;-68
2021/08/12 04:29:16;;;;;;;8.10;6.70;;;;;;;23.49;58.48;100561.42;117561;1185;21864;-65
2021/08/12 04:31:44;;;;;;;11.10;7.00;;;;;;;23.61;58.38;100561.23;117629;1185;21957;-67
2021/08/12 04:34:12;;;;;;;8.40;6.40;;;;;;;23.64;58.36;100559.98;117563;1183;21897;-68
2021/08/12 04:36:41;;;;;;;7.90;6.00;;;;;;;23.69;58.23;100557.65;117535;1182;23475;-64
2021/08/12 04:39:09;;;;;;;8.40;6.80;;;;;;;23.82;58.03;100558.30;117465;1182;22895;-67
2021/08/12 04:41:38;;;;;;;19.00;6.70;;;;;;;23.93;57.79;100560.63;117532;1184;21886;-64
2021/08/12 04:44:08;;;;;;;8.50;6.30;;;;;;;23.92;57.79;100563.72;117395;1182;21944;-61
2021/08/12 04:46:36;;;;;;;10.80;6.50;;;;;;;24.02;57.43;100564.70;117465;1183;21865;-61
2021/08/12 04:49:04;;;;;;;8.40;6.80;;;;;;;24.13;57.17;100566.13;117495;1183;21851;-62
2021/08/12 04:51:33;;;;;;;13.00;6.40;;;;;;;24.25;56.94;100571.30;117559;1179;23545;-67
2021/08/12 04:54:01;;;;;;;8.50;6.60;;;;;;;24.42;56.60;100571.77;117453;1186;22908;-62
2021/08/12 04:56:29;;;;;;;8.50;6.20;;;;;;;24.48;56.34;100575.45;117529;1183;21893;-66
2021/08/12 04:58:58;;;;;;;11.20;7.10;;;;;;;24.51;56.42;100570.26;117513;1183;21854;-66
2021/08/12 05:01:29;;;;;;;13.60;6.60;;;;;;;24.56;56.16;100570.81;117514;1183;21850;-62
2021/08/12 05:03:58;;;;;;;11.70;6.60;;;;;;;24.69;55.84;100569.77;117422;1182;21855;-67
2021/08/12 05:06:27;;;;;;;9.00;6.00;;;;;;;25.16;54.68;100570.64;117434;1182;21880;-64
2021/08/12 05:08:55;;;;;;;11.00;6.60;;;;;;;26.00;52.78;100562.83;117384;1186;21842;-65
2021/08/12 05:11:23;;;;;;;9.70;6.50;;;;;;;25.99;52.61;100571.19;117411;1183;21834;-62
2021/08/12 05:13:51;;;;;;;10.60;6.50;;;;;;;25.77;53.35;100570.14;117675;1185;21854;-61
2021/08/12 05:16:21;;;;;;;9.30;6.60;;;;;;;25.52;53.76;100575.65;117575;1184;22100;-61
2021/08/12 05:18:50;;;;;;;9.80;6.30;;;;;;;25.51;53.80;100573.95;117504;1179;21854;-61
2021/08/12 05:21:19;;;;;;;8.90;6.00;;;;;;;26.01;52.73;100574.41;117583;1182;21844;-65
2021/08/12 05:23:48;;;;;;;12.60;6.40;;;;;;;26.35;51.67;100575.36;117503;1182;23446;-67
2021/08/12 05:26:16;;;;;;;9.00;5.90;;;;;;;27.26;49.75;100576.27;117375;1185;21860;-67
2021/08/12 05:28:45;;;;;;;11.90;6.50;;;;;;;27.79;48.29;100578.27;117440;1185;23564;-67
2021/08/12 05:31:13;;;;;;;8.70;5.60;;;;;;;27.54;48.44;100579.13;117421;1183;21864;-68
2021/08/12 05:33:42;;;;;;;8.70;5.60;;;;;;;26.69;50.16;100582.90;117414;1185;22848;-62
2021/08/12 05:36:11;;;;;;;11.40;6.30;;;;;;;27.21;49.08;100583.31;117481;1184;21864;-68
2021/08/12 05:38:57;;;;;;;10.20;5.90;;;;;;;27.98;47.30;100582.04;117271;1182;23578;-63
2021/08/12 05:41:26;;;;;;;7.40;5.40;;;;;;;27.19;48.89;100582.86;117474;1179;22468;-62
2021/08/12 05:43:56;;;;;;;9.90;4.70;;;;;;;27.07;49.35;100588.29;117427;1183;23526;-62
2021/08/12 05:46:24;;;;;;;10.80;5.80;;;;;;;27.22;49.22;100588.39;117459;1182;22627;-63
2021/08/12 05:48:53;;;;;;;11.20;5.90;;;;;;;27.47;48.51;100587.08;117445;1183;23451;-63
2021/08/12 05:51:27;;;;;;;9.90;5.40;;;;;;;27.58;48.17;100585.54;117472;1184;23533;-62
2021/08/12 05:53:55;;;;;;;8.60;5.30;;;;;;;27.76;48.05;100583.89;117381;1188;21855;-64
2021/08/12 05:56:23;;;;;;;12.00;5.90;;;;;;;27.94;47.57;100586.39;117368;1182;22642;-69
2021/08/12 05:58:51;;;;;;;8.10;5.30;;;;;;;28.09;47.45;100589.87;117444;1183;24140;-70
2021/08/12 06:01:19;;;;;;;6.70;4.70;;;;;;;28.26;46.91;100592.95;117551;1185;21852;-61
2021/08/12 06:03:48;;;;;;;8.70;4.90;;;;;;;28.34;46.85;100596.95;117510;1183;23522;-62
2021/08/12 06:06:17;;;;;;;7.50;5.20;;;;;;;28.43;46.60;100599.88;117485;1182;21852;-62
2021/08/12 06:08:45;;;;;;;8.60;4.80;;;;;;;28.57;46.13;100600.89;117545;1185;21854;-67
2021/08/12 06:11:30;;;;;;;8.10;4.90;;;;;;;28.73;45.81;100607.45;117414;1182;21854;-67
2021/08/12 06:14:00;;;;;;;6.80;4.70;;;;;;;28.89;45.11;100611.34;117391;1183;21861;-61
2021/08/12 06:16:28;;;;;;;6.70;4.70;;;;;;;28.94;44.92;100609.82;117493;1183;21854;-67
2021/08/12 06:19:16;;;;;;;7.10;5.10;;;;;;;29.13;44.79;100615.27;117489;1183;23467;-69
2021/08/12 06:21:46;;;;;;;6.80;4.80;;;;;;;29.25;44.32;100616.70;117458;1182;21854;-67
2021/08/12 06:24:14;;;;;;;5.90;4.20;;;;;;;29.38;43.88;100622.07;117507;1182;21854;-61
2021/08/12 06:26:44;;;;;;;7.70;4.70;;;;;;;29.63;43.37;100618.81;117537;1183;21864;-64
2021/08/12 06:29:12;;;;;;;7.50;4.70;;;;;;;29.75;43.23;100620.66;117519;1182;23436;-69
2021/08/12 06:31:40;;;;;;;8.30;4.60;;;;;;;29.79;43.19;100626.16;117398;1186;21895;-66
2021/08/12 06:34:09;;;;;;;9.40;5.10;;;;;;;30.07;42.70;100627.77;117531;1185;21864;-67
2021/08/12 06:36:37;;;;;;;7.10;4.70;;;;;;;30.29;42.09;100625.61;117502;1182;21855;-63
2021/08/12 06:39:05;;;;;;;5.10;4.20;;;;;;;30.61;41.43;100624.81;117419;1183;21845;-65
2021/08/12 06:41:34;;;;;;;7.30;5.10;;;;;;;30.88;40.85;100625.58;117396;1183;21862;-62
2021/08/12 06:44:03;;;;;;;7.90;4.60;;;;;;;31.06;40.72;100630.59;117426;1185;21916;-66
2021/08/12 06:46:34;;;;;;;7.40;4.10;;;;;;;31.31;39.91;100629.36;117513;1182;21854;-62
2021/08/12 06:49:02;;;;;;;9.30;4.90;;;;;;;31.47;39.38;100631.05;117551;1185;22954;-68
2021/08/12 06:51:31;;;;;;;10.70;4.40;;;;;;;31.61;39.04;100631.55;117478;1182;21862;-68
2021/08/12 06:54:01;;;;;;;8.10;4.80;;;;;;;31.65;38.84;100627.70;117364;1185;21855;-68
2021/08/12 06:56:32;;;;;;;7.70;4.70;;;;;;;31.70;38.83;100631.36;117539;1183;21857;-62
2021/08/12 06:59:00;;;;;;;9.30;5.00;;;;;;;31.92;38.92;100632.58;117472;1184;21865;-66
2021/08/12 07:01:48;;;;;;;10.10;4.60;;;;;;;32.14;38.75;100628.33;117551;1183;21862;-66
2021/08/12 07:04:17;;;;;;;7.70;4.50;;;;;;;32.22;38.61;100627.55;117490;1182;22927;-62
2021/08/12 07:06:45;;;;;;;10.90;4.40;;;;;;;32.24;38.72;100633.21;117490;1186;21852;-66
2021/08/12 07:09:14;;;;;;;8.20;4.80;;;;;;;32.46;38.29;100636.82;117486;1182;21913;-61
2021/08/12 07:11:47;;;;;;;10.70;4.50;;;;;;;32.54;38.34;100637.13;117446;1185;21860;-67
2021/08/12 07:14:15;;;;;;;;;;;;;;;32.75;37.98;100636.77;117501;1184;21826;-66
2021/08/12 07:16:43;;;;;;;30.60;7.10;;;;;;;33.06;37.16;100637.56;117469;1183;21854;-70
2021/08/12 07:19:18;;;;;;;148.80;16.70;;;;;;;33.25;36.90;100639.29;117327;1176;21854;-63
2021/08/12 07:21:47;;;;;;;131.20;16.30;;;;;;;33.34;36.63;100643.98;117485;1182;21854;-62
2021/08/12 07:24:15;;;;;;;71.90;10.30;;;;;;;33.41;36.38;100645.13;117440;1185;22185;-62
2021/08/12 07:26:46;;;;;;;26.70;6.20;;;;;;;33.46;36.55;100647.65;117452;1182;21846;-68
2021/08/12 07:29:16;;;;;;;11.70;4.60;;;;;;;33.54;36.43;100650.68;117461;1185;21854;-69
2021/08/12 07:31:47;;;;;;;8.50;4.50;;;;;;;33.71;36.33;100649.02;117434;1184;22916;-64
2021/08/12 07:34:16;;;;;;;7.60;4.50;;;;;;;33.96;35.52;100645.74;117357;1182;23471;-63
2021/08/12 07:36:46;;;;;;;13.90;5.10;;;;;;;34.07;35.25;100644.27;117328;1185;21861;-68
2021/08/12 07:39:15;;;;;;;6.80;4.20;;;;;;;34.07;34.81;100643.40;117362;1185;22982;-67
2021/08/12 07:41:49;;;;;;;6.70;4.40;;;;;;;34.10;34.48;100641.60;117361;1185;21867;-64
2021/08/12 07:44:17;;;;;;;7.60;4.20;;;;;;;34.06;34.32;100647.66;117301;1186;21911;-62
2021/08/12 07:46:45;;;;;;;7.20;4.20;;;;;;;33.84;34.48;100649.82;117342;1185;22909;-68
2021/08/12 07:49:14;;;;;;;5.50;4.10;;;;;;;33.84;34.51;100650.36;117311;1185;21858;-66
2021/08/12 07:52:00;;;;;;;7.20;3.70;;;;;;;33.84;34.35;100647.63;117322;1185;21857;-64
2021/08/12 07:54:29;;;;;;;6.70;4.30;;;;;;;33.91;34.50;100644.18;117319;1185;21858;-63
2021/08/12 07:56:57;;;;;;;7.20;3.90;;;;;;;34.12;34.25;100643.20;117358;1183;21857;-63
2021/08/12 07:59:25;;;;;;;24.80;5.70;;;;;;;34.32;33.77;100644.91;117424;1176;21854;-63
2021/08/12 08:01:53;;;;;;;5.90;3.90;;;;;;;34.45;33.62;100647.09;117346;1184;21845;-69
2021/08/12 08:04:22;;;;;;;6.30;3.70;;;;;;;34.49;33.45;100643.70;117337;1182;21857;-63
2021/08/12 08:06:51;;;;;;;4.70;3.50;;;;;;;34.60;33.38;100644.55;117316;1183;21854;-63
2021/08/12 08:09:19;;;;;;;8.50;4.20;;;;;;;34.67;33.04;100640.15;117352;1185;21966;-69
2021/08/12 08:11:58;;;;;;;5.60;4.10;;;;;;;34.68;32.52;100640.65;117307;1176;21901;-66
2021/08/12 08:14:26;;;;;;;7.00;4.20;;;;;;;34.61;32.80;100640.17;117415;1185;21907;-62
2021/08/12 08:16:54;;;;;;;8.10;4.00;;;;;;;34.52;33.30;100637.41;117386;1182;23455;-61
2021/08/12 08:19:23;;;;;;;12.30;4.10;;;;;;;34.52;33.69;100636.21;117455;1185;21853;-66
2021/08/12 08:21:53;;;;;;;6.80;4.30;;;;;;;34.57;33.25;100641.06;117332;1185;21854;-66
2021/08/12 08:24:21;;;;;;;12.50;4.30;;;;;;;34.63;33.02;100639.39;117316;1182;21830;-67
2021/08/12 08:26:49;;;;;;;7.20;4.10;;;;;;;34.72;32.95;100637.03;117336;1182;21848;-62
2021/08/12 08:29:19;;;;;;;4.90;3.50;;;;;;;34.80;32.80;100633.43;117350;1182;21857;-67
2021/08/12 08:32:08;;;;;;;5.20;3.70;;;;;;;34.89;32.24;100629.33;117323;1186;22929;-67
2021/08/12 08:34:36;;;;;;;14.30;3.80;;;;;;;34.88;32.35;100633.46;117419;1186;21862;-67
2021/08/12 08:37:12;;;;;;;6.50;3.30;;;;;;;34.99;32.56;100631.18;117515;1184;21920;-61
2021/08/12 08:39:40;;;;;;;9.10;3.50;;;;;;;35.11;31.88;100627.85;117585;1182;21854;-67
2021/08/12 08:42:11;;;;;;;9.10;3.40;;;;;;;35.20;31.57;100624.85;117655;1180;23543;-64
2021/08/12 08:44:42;;;;;;;7.80;3.30;;;;;;;35.35;31.66;100623.59;117576;1182;21865;-67
2021/08/12 08:47:11;;;;;;;5.90;3.70;;;;;;;35.48;31.19;100623.27;117435;1180;22905;-67
2021/08/12 08:49:41;;;;;;;7.20;3.40;;;;;;;35.56;30.56;100623.70;117541;1185;21854;-67
2021/08/12 08:52:11;;;;;;;7.10;3.30;;;;;;;35.62;30.28;100625.55;117432;1184;21855;-66
2021/08/12 08:54:40;;;;;;;7.00;3.60;;;;;;;35.72;30.14;100631.38;117401;1185;22980;-66
2021/08/12 08:57:09;;;;;;;6.10;3.20;;;;;;;35.75;29.67;100630.63;117472;1183;21854;-67
2021/08/12 08:59:37;;;;;;;3.60;3.10;;;;;;;35.84;29.92;100629.27;117462;1182;24152;-67
2021/08/12 09:02:07;;;;;;;6.50;3.10;;;;;;;35.91;29.84;100631.70;117391;1185;21901;-66
2021/08/12 09:04:35;;;;;;;;;;;;;;;36.02;29.30;100632.96;117369;1185;22908;-66
2021/08/12 09:07:08;;;;;;;4.30;3.10;;;;;;;36.25;29.24;100636.55;117482;1182;21849;-68
2021/08/12 09:09:36;;;;;;;4.40;3.00;;;;;;;36.28;28.90;100638.13;117439;1183;21870;-63
2021/08/12 09:12:05;;;;;;;4.40;3.00;;;;;;;36.20;29.13;100643.58;117592;1183;23429;-63
2021/08/12 09:14:41;;;;;;;5.60;3.00;;;;;;;36.14;28.43;100644.92;117534;1185;21855;-66
2021/08/12 09:17:18;;;;;;;8.10;3.10;;;;;;;36.00;27.81;100646.27;117380;1182;21853;-67
2021/08/12 09:20:08;;;;;;;7.00;3.20;;;;;;;35.87;28.25;100647.15;117317;1179;23538;-67
2021/08/12 09:22:49;;;;;;;20.20;4.70;;;;;;;35.85;28.31;100650.79;117541;1184;23535;-69
2021/08/12 09:25:30;;;;;;;4.80;3.00;;;;;;;35.86;28.38;100648.13;117452;1184;21855;-64
2021/08/12 09:28:18;;;;;;;3.50;2.70;;;;;;;35.86;28.16;100647.23;117424;1182;22906;-68
2021/08/12 09:31:04;;;;;;;8.20;3.10;;;;;;;35.92;27.99;100648.77;117381;1182;21895;-63
2021/08/12 09:33:39;;;;;;;6.70;3.00;;;;;;;36.01;28.17;100645.91;117335;1184;24698;-60
2021/08/12 09:36:23;;;;;;;7.10;2.90;;;;;;;36.21;28.49;100644.79;117279;1186;23625;-63
2021/08/12 09:39:10;;;;;;;7.20;3.30;;;;;;;36.39;27.88;100646.55;117333;1185;21858;-68
2021/08/12 09:41:45;;;;;;;4.60;2.80;;;;;;;36.47;27.76;100646.58;117420;1185;21857;-66
2021/08/12 09:44:42;;;;;;;7.90;3.40;;;;;;;36.63;27.48;100647.04;117345;1185;24225;-66
2021/08/12 09:47:15;;;;;;;5.70;2.80;;;;;;;36.78;26.60;100650.00;117388;1182;21847;-68
2021/08/12 09:49:52;;;;;;;3.20;2.20;;;;;;;36.74;26.19;100653.63;117345;1185;22914;-66
2021/08/12 09:52:34;;;;;;;6.30;3.40;;;;;;;36.60;26.05;100656.18;117395;1185;21872;-66
2021/08/12 09:55:11;;;;;;;3.50;2.50;;;;;;;36.51;26.48;100656.50;117333;1183;23510;-64
2021/08/12 09:57:49;;;;;;;4.70;2.80;;;;;;;36.54;27.00;100652.66;117389;1185;22093;-64
2021/08/12 10:00:21;;;;;;;7.50;3.30;;;;;;;36.55;26.84;100656.27;117435;1184;23438;-66
2021/08/12 10:02:49;;;;;;;7.50;2.90;;;;;;;36.58;26.72;100656.55;117334;1185;22780;-66
2021/08/12 10:05:17;;;;;;;3.50;2.40;;;;;;;36.58;26.37;100656.41;117222;1184;23537;-65
2021/08/12 10:07:47;;;;;;;4.00;2.40;;;;;;;36.56;26.27;100658.33;117348;1185;21850;-63
2021/08/12 10:10:21;;;;;;;4.00;2.90;;;;;;;36.67;26.39;100659.52;117337;1185;22908;-63
2021/08/12 10:12:53;;;;;;;4.20;3.30;;;;;;;36.93;26.43;100658.15;117380;1183;22837;-67
2021/08/12 10:15:38;;;;;;;6.50;2.90;;;;;;;36.96;26.38;100660.13;117370;1184;21853;-65
2021/08/12 10:18:06;;;;;;;3.90;2.80;;;;;;;37.13;26.29;100661.54;117237;1184;23435;-66
2021/08/12 10:20:36;;;;;;;;;;;;;;;37.29;26.16;100662.50;117334;1184;21852;-66
2021/08/12 10:23:06;;;;;;;4.00;3.00;;;;;;;37.25;25.98;100662.14;117323;1184;21865;-65
2021/08/12 10:25:35;;;;;;;5.00;3.30;;;;;;;37.26;25.94;100664.27;117367;1186;21857;-65
2021/08/12 10:28:05;;;;;;;5.00;3.30;;;;;;;37.36;26.24;100664.15;117413;1184;21870;-66
2021/08/12 10:30:34;;;;;;;8.50;3.10;;;;;;;37.33;26.23;100665.21;117340;1183;21959;-64
2021/08/12 10:33:05;;;;;;;5.40;2.80;;;;;;;37.18;26.22;100665.16;117379;1185;23366;-64
2021/08/12 10:35:34;;;;;;;;;;;;;;;37.06;26.31;100664.20;117435;1185;22956;-64
2021/08/12 10:38:03;;;;;;;8.90;3.80;;;;;;;37.07;26.61;100665.43;117650;1180;21855;-64
2021/08/12 10:40:34;;;;;;;;;;;;;;;37.05;26.33;100661.95;117439;1185;22909;-64
2021/08/12 10:43:04;;;;;;;6.30;3.50;;;;;;;37.09;26.44;100667.90;117512;1182;23429;-64
2021/08/12 10:45:56;;;;;;;6.60;3.20;;;;;;;37.19;26.04;100669.11;117464;1179;21858;-64
2021/08/12 10:48:45;;;;;;;4.60;3.00;;;;;;;37.18;25.79;100666.44;117446;1184;22898;-65
2021/08/12 10:51:13;;;;;;;4.40;2.80;;;;;;;37.14;25.68;100665.65;117417;1185;23580;-67
2021/08/12 10:53:43;;;;;;;4.80;3.10;;;;;;;37.24;25.65;100667.54;117464;1184;21858;-67
2021/08/12 10:56:12;;;;;;;6.60;3.20;;;;;;;37.43;25.37;100665.33;117481;1183;23586;-64
2021/08/12 10:58:43;;;;;;;5.30;2.50;;;;;;;37.54;24.70;100661.95;117441;1183;22319;-70
2021/08/12 11:01:31;;;;;;;8.00;2.70;;;;;;;37.43;24.57;100664.05;117448;1179;23532;-64
2021/08/12 11:04:46;;;;;;;8.90;2.80;;;;;;;37.39;24.97;100667.83;117352;1185;21864;-69
2021/08/12 11:07:33;;;;;;;4.30;2.90;;;;;;;37.23;25.04;100671.91;117159;1188;21858;-65
2021/08/12 11:45:06;;;;;;;6.90;2.00;;;;;;;37.46;24.40;100672.23;117293;1176;23612;-63
2021/08/12 11:47:35;;;;;;;5.60;2.50;;;;;;;37.37;24.28;100670.00;117418;1183;23538;-64
2021/08/12 11:50:08;;;;;;;7.70;2.50;;;;;;;37.26;24.32;100665.70;117313;1183;21863;-64
2021/08/12 11:52:48;;;;;;;3.30;2.40;;;;;;;37.28;24.86;100667.80;117388;1183;21859;-64
2021/08/12 11:55:19;;;;;;;4.90;2.60;;;;;;;37.44;24.77;100667.64;117439;1185;22322;-65
2021/08/12 11:57:51;;;;;;;5.20;2.60;;;;;;;37.60;24.64;100666.09;117361;1185;21858;-64
2021/08/12 12:00:33;;;;;;;6.00;2.90;;;;;;;37.65;24.26;100665.20;117363;1176;21853;-65
2021/08/12 12:03:05;;;;;;;11.70;3.30;;;;;;;37.52;23.72;100668.34;117428;1185;22902;-65
2021/08/12 12:05:38;;;;;;;5.20;2.40;;;;;;;37.38;23.97;100661.26;117446;1185;21851;-63
2021/08/12 12:08:11;;;;;;;4.40;2.10;;;;;;;37.31;24.54;100661.77;117367;1183;21851;-67
2021/08/12 12:10:41;;;;;;;5.80;2.50;;;;;;;37.27;24.44;100663.19;117430;1183;22622;-67